createdAt,value
2018-03-12T00:01:57.398Z,81.44
2018-03-12T00:04:25.498Z,81.26
2018-03-12T00:06:53.246Z,81.23
2018-03-12T00:09:20.838Z,80.91
2018-03-12T00:11:48.479Z,81.40
2018-03-12T00:14:16.751Z,81.79
2018-03-12T00:16:44.346Z,81.99
2018-03-12T00:19:11.987Z,81.83
2018-03-12T00:21:39.729Z,83.09
2018-03-12T00:24:07.500Z,82.35
2018-03-12T00:26:35.116Z,82.30
2018-03-12T00:29:02.983Z,81.84
2018-03-12T00:31:30.892Z,81.77
2018-03-12T00:33:58.602Z,81.88
2018-03-12T00:36:26.328Z,82.08
2018-03-12T00:38:53.919Z,82.19
2018-03-12T00:41:21.552Z,82.32
2018-03-12T00:43:49.232Z,82.24
2018-03-12T00:46:16.836Z,82.10
2018-03-12T00:48:44.694Z,81.92
2018-03-12T00:51:12.404Z,82.59
2018-03-12T00:53:40.000Z,82.48
2018-03-12T00:56:07.632Z,82.18
2018-03-12T00:58:35.345Z,82.07
2018-03-12T01:01:02.981Z,83.10
2018-03-12T01:03:30.614Z,82.41
2018-03-12T01:05:58.361Z,82.46
2018-03-12T01:08:26.019Z,82.80
2018-03-12T01:10:54.352Z,82.59
2018-03-12T01:13:22.069Z,82.82
2018-03-12T01:15:51.766Z,82.80
2018-03-12T01:18:19.946Z,82.92
2018-03-12T01:20:47.726Z,82.86
2018-03-12T01:23:15.568Z,83.88
2018-03-12T01:25:43.250Z,83.91
2018-03-12T01:28:11.031Z,83.93
2018-03-12T01:30:38.833Z,83.94
2018-03-12T01:33:06.680Z,84.42
2018-03-12T01:35:34.319Z,84.08
2018-03-12T01:38:01.916Z,84.38
2018-03-12T01:40:29.669Z,84.15
2018-03-12T01:42:57.512Z,83.09
2018-03-12T01:45:25.093Z,83.24
2018-03-12T01:47:52.758Z,83.48
2018-03-12T01:50:20.362Z,83.89
2018-03-12T01:53:00.461Z,83.84
2018-03-12T01:55:28.443Z,83.58
2018-03-12T01:57:56.044Z,83.25
2018-03-12T02:00:24.365Z,83.04
2018-03-12T02:02:52.122Z,84.03
2018-03-12T02:05:19.753Z,84.23
2018-03-12T02:07:47.446Z,83.89
2018-03-12T02:10:15.108Z,84.76
2018-03-12T02:12:42.709Z,84.58
2018-03-12T02:15:10.347Z,83.69
2018-03-12T02:17:38.004Z,84.04
2018-03-12T02:20:06.268Z,83.90
2018-03-12T02:22:34.138Z,84.57
2018-03-12T02:25:01.724Z,84.81
2018-03-12T02:27:29.452Z,85.02
2018-03-12T02:29:57.203Z,85.63
2018-03-12T02:32:24.942Z,85.71
2018-03-12T02:34:52.640Z,84.92
2018-03-12T02:37:20.250Z,84.79
2018-03-12T02:39:47.982Z,85.76
2018-03-12T02:42:15.628Z,85.78
2018-03-12T02:44:43.273Z,86.01
2018-03-12T02:47:11.181Z,85.71
2018-03-12T02:49:38.813Z,85.52
2018-03-12T02:52:06.443Z,86.01
2018-03-12T02:54:34.016Z,87.08
2018-03-12T02:57:02.227Z,86.74
2018-03-12T02:59:30.528Z,86.18
2018-03-12T03:01:58.540Z,85.49
2018-03-12T03:04:28.406Z,85.45
2018-03-12T03:06:56.105Z,85.82
2018-03-12T03:09:23.742Z,85.91
2018-03-12T03:11:51.472Z,85.98
2018-03-12T03:14:19.148Z,86.84
2018-03-12T03:16:46.792Z,86.25
2018-03-12T03:19:14.420Z,88.50
2018-03-12T03:21:42.233Z,87.15
2018-03-12T03:24:09.867Z,86.63
2018-03-12T03:26:37.743Z,86.29
2018-03-12T03:29:05.927Z,86.68
2018-03-12T03:31:33.571Z,85.98
2018-03-12T03:34:01.190Z,86.78
2018-03-12T03:36:28.932Z,87.17
2018-03-12T03:38:56.652Z,87.44
2018-03-12T03:41:24.314Z,87.79
2018-03-12T03:43:52.016Z,88.08
2018-03-12T03:46:20.273Z,87.31
2018-03-12T03:48:47.940Z,87.51
2018-03-12T03:51:15.578Z,87.42
2018-03-12T03:53:43.361Z,87.59
2018-03-12T03:56:12.054Z,88.09
2018-03-12T03:58:39.921Z,87.72
2018-03-12T04:01:07.557Z,88.55
2018-03-12T04:03:35.131Z,87.86
2018-03-12T04:06:03.483Z,87.87
2018-03-12T04:08:31.068Z,88.64
2018-03-12T04:10:58.671Z,87.68
2018-03-12T04:13:26.523Z,87.56
2018-03-12T04:15:54.269Z,88.36
2018-03-12T04:18:21.914Z,87.80
2018-03-12T04:20:49.538Z,87.59
2018-03-12T04:23:17.122Z,87.12
2018-03-12T04:25:44.750Z,87.40
2018-03-12T04:28:12.499Z,87.86
2018-03-12T04:30:40.196Z,87.82
2018-03-12T04:33:07.830Z,87.85
2018-03-12T04:35:35.776Z,88.72
2018-03-12T04:38:03.460Z,88.11
2018-03-12T04:40:31.300Z,87.84
2018-03-12T04:42:59.877Z,88.59
2018-03-12T04:45:27.667Z,88.10
2018-03-12T04:47:55.274Z,88.05
2018-03-12T04:50:22.927Z,88.09
2018-03-12T04:52:50.550Z,88.12
2018-03-12T04:55:18.323Z,88.30
2018-03-12T04:57:45.979Z,88.91
2018-03-12T05:00:13.843Z,88.61
2018-03-12T05:02:41.509Z,88.42
2018-03-12T05:05:09.528Z,88.41
2018-03-12T05:07:37.526Z,88.60
2018-03-12T05:10:06.013Z,88.27
2018-03-12T05:12:33.776Z,88.38
2018-03-12T05:15:01.457Z,88.22
2018-03-12T05:17:29.266Z,88.25
2018-03-12T05:19:56.970Z,88.87
2018-03-12T05:22:24.874Z,88.87
2018-03-12T05:24:52.511Z,88.82
2018-03-12T05:27:20.387Z,88.44
2018-03-12T05:29:48.255Z,88.79
2018-03-12T05:32:16.217Z,88.93
2018-03-12T05:34:44.005Z,88.61
2018-03-12T05:37:12.366Z,88.54
2018-03-12T05:39:40.191Z,88.76
2018-03-12T05:42:09.022Z,89.21
2018-03-12T05:44:37.048Z,89.48
2018-03-12T05:47:04.919Z,89.33
2018-03-12T05:49:32.829Z,89.40
2018-03-12T05:52:00.693Z,89.45
2018-03-12T05:54:28.773Z,88.71
2018-03-12T05:56:56.422Z,88.17
2018-03-12T05:59:24.297Z,87.98
2018-03-12T06:01:51.934Z,87.86
2018-03-12T06:04:19.607Z,88.21
2018-03-12T06:06:47.224Z,88.73
2018-03-12T06:09:17.717Z,88.58
2018-03-12T06:11:45.738Z,87.87
2018-03-12T06:14:13.951Z,87.48
2018-03-12T06:16:41.602Z,87.13
2018-03-12T06:19:09.212Z,87.58
2018-03-12T06:21:36.840Z,86.95
2018-03-12T06:24:04.504Z,87.67
2018-03-12T06:26:32.295Z,87.03
2018-03-12T06:28:59.896Z,86.50
2018-03-12T06:31:27.790Z,86.51
2018-03-12T06:33:55.466Z,86.08
2018-03-12T06:36:23.069Z,86.06
2018-03-12T06:38:50.880Z,85.78
2018-03-12T06:41:18.524Z,85.68
2018-03-12T06:43:46.402Z,85.19
2018-03-12T06:46:14.078Z,85.12
2018-03-12T06:48:41.898Z,84.84
2018-03-12T06:51:10.248Z,84.33
2018-03-12T06:53:37.939Z,84.40
2018-03-12T06:56:05.560Z,84.60
2018-03-12T06:58:33.408Z,84.70
2018-03-12T07:01:01.059Z,84.89
2018-03-12T07:03:28.690Z,83.94
2018-03-12T07:05:56.405Z,84.30
2018-03-12T07:08:24.054Z,84.20
2018-03-12T07:10:51.680Z,84.05
2018-03-12T07:13:19.493Z,84.29
2018-03-12T07:15:47.359Z,84.11
2018-03-12T07:18:15.430Z,83.65
2018-03-12T07:20:43.410Z,82.20
2018-03-12T07:23:11.498Z,82.54
2018-03-12T07:25:39.155Z,82.67
2018-03-12T07:28:06.795Z,81.81
2018-03-12T07:30:34.401Z,81.73
2018-03-12T07:33:02.328Z,82.22
2018-03-12T07:35:30.166Z,81.96
2018-03-12T07:37:57.805Z,81.72
2018-03-12T07:40:25.622Z,80.96
2018-03-12T07:42:54.094Z,81.56
2018-03-12T07:45:21.777Z,81.52
2018-03-12T07:47:49.616Z,80.88
2018-03-12T07:50:17.406Z,80.41
2018-03-12T07:52:45.064Z,80.16
2018-03-12T07:55:12.829Z,79.39
2018-03-12T07:57:40.429Z,76.88
2018-03-12T08:00:08.096Z,72.59
2018-03-12T08:02:35.982Z,70.62
2018-03-12T08:05:03.982Z,68.89
2018-03-12T08:07:31.632Z,67.21
2018-03-12T08:09:59.333Z,66.83
2018-03-12T08:12:27.229Z,65.17
2018-03-12T08:14:55.584Z,63.58
2018-03-12T08:17:23.185Z,63.94
2018-03-12T08:19:50.884Z,64.21
2018-03-12T08:22:18.690Z,63.07
2018-03-12T08:24:46.564Z,61.02
2018-03-12T08:27:14.269Z,62.34
2018-03-12T08:29:42.458Z,61.57
2018-03-12T08:32:10.665Z,59.34
2018-03-12T08:34:38.597Z,60.10
2018-03-12T08:37:06.428Z,59.55
2018-03-12T08:39:34.334Z,59.71
2018-03-12T08:42:02.002Z,60.01
2018-03-12T08:44:29.762Z,62.64
2018-03-12T08:46:58.469Z,61.13
2018-03-12T08:49:26.234Z,56.97
2018-03-12T08:51:53.897Z,58.08
2018-03-12T08:54:21.821Z,57.67
2018-03-12T08:56:49.917Z,57.17
2018-03-12T08:59:17.603Z,53.49
2018-03-12T09:01:45.206Z,53.85
2018-03-12T09:04:13.019Z,54.19
2018-03-12T09:06:40.767Z,53.52
2018-03-12T09:09:08.541Z,54.00
2018-03-12T09:11:36.217Z,54.88
2018-03-12T09:14:04.613Z,56.36
2018-03-12T09:16:32.253Z,56.23
2018-03-12T09:18:59.984Z,56.12
2018-03-12T09:21:27.851Z,52.94
2018-03-12T09:23:55.504Z,53.41
2018-03-12T09:26:23.909Z,54.68
2018-03-12T09:28:51.687Z,52.92
2018-03-12T09:31:19.678Z,53.18
2018-03-12T09:33:47.284Z,52.27
2018-03-12T09:36:14.940Z,53.54
2018-03-12T09:38:42.711Z,52.47
2018-03-12T09:41:10.356Z,53.07
2018-03-12T09:43:38.016Z,50.74
2018-03-12T09:46:05.824Z,50.93
2018-03-12T09:48:33.473Z,48.56
2018-03-12T09:51:01.553Z,50.85
2018-03-12T09:53:29.776Z,51.92
2018-03-12T09:55:57.594Z,52.24
2018-03-12T09:58:26.300Z,51.44
2018-03-12T10:00:53.937Z,49.71
2018-03-12T10:03:21.565Z,48.88
2018-03-12T10:05:49.366Z,48.90
2018-03-12T10:08:17.243Z,44.84
2018-03-12T10:10:44.988Z,45.15
2018-03-12T10:13:13.011Z,44.93
2018-03-12T10:15:41.791Z,45.12
2018-03-12T10:18:09.656Z,45.01
2018-03-12T10:20:37.311Z,45.46
2018-03-12T10:23:05.366Z,46.00
2018-03-12T10:25:33.252Z,45.13
2018-03-12T10:28:00.997Z,45.69
2018-03-12T10:30:28.652Z,44.77
2018-03-12T10:32:56.527Z,45.61
2018-03-12T10:35:24.631Z,46.36
2018-03-12T10:37:52.451Z,47.45
2018-03-12T10:40:20.105Z,46.69
2018-03-12T10:42:48.889Z,48.01
2018-03-12T10:45:16.626Z,48.19
2018-03-12T10:47:44.347Z,48.63
2018-03-12T10:50:12.831Z,48.86
2018-03-12T10:52:40.441Z,49.02
2018-03-12T10:55:08.150Z,48.81
2018-03-12T10:57:36.538Z,48.58
2018-03-12T11:00:04.297Z,50.26
2018-03-12T11:02:32.876Z,48.99
2018-03-12T11:05:01.342Z,49.60
2018-03-12T11:07:29.228Z,48.96
2018-03-12T11:09:57.104Z,51.29
2018-03-12T11:12:25.537Z,51.51
2018-03-12T11:14:53.409Z,50.28
2018-03-12T11:17:21.025Z,52.06
2018-03-12T11:19:48.853Z,53.40
2018-03-12T11:22:16.649Z,53.58
2018-03-12T11:24:44.398Z,52.90
2018-03-12T11:27:12.064Z,51.82
2018-03-12T11:29:39.928Z,51.95
2018-03-12T11:32:07.579Z,51.00
2018-03-12T11:34:35.625Z,51.90
2018-03-12T11:37:03.530Z,49.86
2018-03-12T11:39:31.281Z,47.07
2018-03-12T11:41:59.760Z,47.75
2018-03-12T11:44:27.621Z,47.49
2018-03-12T11:46:55.399Z,49.14
2018-03-12T11:49:23.277Z,49.48
2018-03-12T11:51:51.860Z,48.93
2018-03-12T11:54:19.531Z,49.39
2018-03-12T11:56:47.376Z,49.36
2018-03-12T11:59:15.076Z,48.20
2018-03-12T12:01:42.817Z,47.25
2018-03-12T12:04:10.635Z,47.32
2018-03-12T12:06:39.509Z,49.71
2018-03-12T12:09:07.490Z,48.99
2018-03-12T12:11:36.026Z,48.93
2018-03-12T12:14:03.996Z,51.62
2018-03-12T12:16:32.071Z,51.16
2018-03-12T12:18:59.940Z,49.19
2018-03-12T12:21:27.817Z,51.29
2018-03-12T12:23:55.776Z,51.87
2018-03-12T12:26:23.630Z,53.17
2018-03-12T12:28:51.482Z,52.73
2018-03-12T12:31:19.223Z,50.35
2018-03-12T12:33:46.936Z,53.45
2018-03-12T12:36:15.936Z,53.65
2018-03-12T12:38:44.033Z,52.89
2018-03-12T12:41:11.920Z,53.31
2018-03-12T12:43:40.543Z,53.44
2018-03-12T12:46:08.456Z,53.34
2018-03-12T12:48:36.691Z,52.92
2018-03-12T12:51:04.459Z,53.10
2018-03-12T12:53:32.332Z,52.82
2018-03-12T12:55:59.999Z,52.76
2018-03-12T12:58:28.367Z,52.65
2018-03-12T13:00:56.123Z,53.44
2018-03-12T13:03:23.793Z,52.57
2018-03-12T13:05:51.743Z,53.44
2018-03-12T13:08:19.712Z,53.30
2018-03-12T13:10:47.852Z,53.49
2018-03-12T13:13:15.770Z,52.14
2018-03-12T13:15:43.760Z,52.94
2018-03-12T13:18:11.414Z,53.49
2018-03-12T13:20:39.388Z,53.63
2018-03-12T13:23:07.252Z,53.84
2018-03-12T13:25:35.126Z,52.47
2018-03-12T13:28:02.858Z,53.03
2018-03-12T13:30:30.826Z,53.85
2018-03-12T13:32:58.885Z,54.28
2018-03-12T13:35:27.058Z,53.59
2018-03-12T13:37:55.174Z,53.81
2018-03-12T13:40:23.357Z,52.22
2018-03-12T13:42:51.425Z,50.57
2018-03-12T13:45:19.442Z,52.01
2018-03-12T13:47:48.613Z,51.39
2018-03-12T13:50:17.029Z,51.93
2018-03-12T13:52:45.514Z,51.66
2018-03-12T13:55:15.071Z,51.12
2018-03-12T13:57:42.926Z,51.56
2018-03-12T14:00:11.949Z,51.28
2018-03-12T14:02:39.910Z,50.39
2018-03-12T14:05:07.763Z,50.02
2018-03-12T14:07:36.076Z,49.25
2018-03-12T14:10:04.000Z,49.69
2018-03-12T14:12:32.036Z,52.07
2018-03-12T14:15:00.424Z,50.51
2018-03-12T14:17:28.320Z,50.11
2018-03-12T14:19:56.041Z,49.25
2018-03-12T14:22:23.849Z,48.99
2018-03-12T14:24:51.847Z,51.23
2018-03-12T14:27:19.718Z,51.41
2018-03-12T14:29:48.375Z,51.25
2018-03-12T14:32:18.196Z,52.16
2018-03-12T14:34:45.860Z,53.52
2018-03-12T14:37:14.047Z,53.87
2018-03-12T14:39:42.401Z,54.73
2018-03-12T14:42:10.175Z,54.49
2018-03-12T14:44:38.024Z,54.37
2018-03-12T14:47:05.699Z,54.65
2018-03-12T14:49:33.843Z,54.87
2018-03-12T14:52:01.838Z,55.61
2018-03-12T14:54:29.709Z,55.94
2018-03-12T14:56:58.400Z,55.67
2018-03-12T14:59:26.842Z,55.79
2018-03-12T15:01:54.985Z,56.58
2018-03-12T15:04:22.879Z,56.63
2018-03-12T15:06:50.744Z,57.44
2018-03-12T15:09:18.611Z,57.75
2018-03-12T15:11:46.479Z,61.26
2018-03-12T15:14:14.282Z,65.16
2018-03-12T15:16:43.587Z,69.12
2018-03-12T15:19:11.662Z,69.49
2018-03-12T15:21:39.729Z,72.74
2018-03-12T15:24:07.805Z,76.98
2018-03-12T15:26:35.561Z,76.14
2018-03-12T15:29:04.043Z,75.94
2018-03-12T15:31:33.187Z,75.75
2018-03-12T15:34:01.610Z,76.22
2018-03-12T15:36:29.693Z,75.50
2018-03-12T15:38:57.568Z,76.85
2018-03-12T15:41:25.610Z,76.76
2018-03-12T15:43:53.705Z,76.73
2018-03-12T15:46:21.981Z,78.51
2018-03-12T15:48:49.844Z,78.86
2018-03-12T15:51:18.125Z,78.34
2018-03-12T15:53:45.993Z,77.78
2018-03-12T15:56:13.836Z,78.61
2018-03-12T15:58:41.878Z,77.92
2018-03-12T16:01:10.003Z,78.34
2018-03-12T16:03:38.485Z,77.99
2018-03-12T16:06:06.165Z,78.91
2018-03-12T16:08:34.041Z,79.16
2018-03-12T16:11:01.939Z,78.56
2018-03-12T16:13:29.810Z,76.85
2018-03-12T16:15:58.435Z,75.85
2018-03-12T16:18:26.444Z,76.42
2018-03-12T16:20:55.399Z,78.04
2018-03-12T16:23:23.331Z,78.52
2018-03-12T16:25:51.136Z,78.71
2018-03-12T16:28:19.614Z,79.67
2018-03-12T16:30:47.585Z,82.07
2018-03-12T16:33:15.847Z,81.79
2018-03-12T16:35:44.200Z,81.05
2018-03-12T16:38:12.158Z,81.20
2018-03-12T16:40:40.173Z,80.85
2018-03-12T16:43:08.120Z,81.22
2018-03-12T16:45:37.118Z,80.49
2018-03-12T16:48:04.777Z,81.51
2018-03-12T16:50:32.457Z,81.25
2018-03-12T16:53:00.093Z,81.58
2018-03-12T16:55:27.888Z,82.15
2018-03-12T16:57:55.559Z,83.59
2018-03-12T17:00:23.634Z,83.02
2018-03-12T17:02:51.626Z,82.76
2018-03-12T17:05:19.395Z,83.45
2018-03-12T17:07:47.230Z,83.17
2018-03-12T17:10:15.096Z,82.90
2018-03-12T17:12:43.789Z,83.09
2018-03-12T17:15:11.763Z,83.10
2018-03-12T17:17:39.790Z,83.54
2018-03-12T17:20:08.283Z,83.71
2018-03-12T17:22:36.375Z,83.40
2018-03-12T17:25:04.255Z,83.42
2018-03-12T17:27:32.218Z,83.36
2018-03-12T17:30:00.332Z,84.16
2018-03-12T17:32:28.356Z,83.84
2018-03-12T17:34:56.635Z,85.85
2018-03-12T17:37:24.713Z,86.52
2018-03-12T17:39:52.602Z,85.73
2018-03-12T17:42:21.128Z,85.03
2018-03-12T17:44:49.018Z,83.90
2018-03-12T17:47:16.787Z,84.98
2018-03-12T17:49:45.274Z,83.85
2018-03-12T17:52:13.039Z,83.60
2018-03-12T17:54:41.259Z,83.63
2018-03-12T17:57:10.253Z,83.62
2018-03-12T17:59:38.742Z,84.15
2018-03-12T18:02:06.458Z,84.74
2018-03-12T18:04:34.830Z,85.22
2018-03-12T18:07:03.310Z,85.86
2018-03-12T18:09:31.175Z,85.42
2018-03-12T18:11:58.922Z,84.98
2018-03-12T18:14:26.681Z,85.86
2018-03-12T18:16:54.965Z,85.86
2018-03-12T18:19:22.739Z,85.14
2018-03-12T18:21:50.538Z,85.37
2018-03-12T18:24:19.154Z,85.71
2018-03-12T18:26:46.900Z,84.83
2018-03-12T18:29:14.706Z,85.64
2018-03-12T18:31:42.592Z,85.49
2018-03-12T18:34:10.570Z,85.61
2018-03-12T18:36:38.333Z,86.12
2018-03-12T18:39:07.387Z,85.57
2018-03-12T18:41:35.273Z,85.60
2018-03-12T18:44:02.996Z,86.23
2018-03-12T18:46:30.731Z,86.29
2018-03-12T18:48:58.615Z,85.81
2018-03-12T18:51:26.971Z,85.56
2018-03-12T18:53:55.188Z,84.72
2018-03-12T18:56:23.046Z,85.18
2018-03-12T18:58:51.210Z,85.31
2018-03-12T19:01:19.018Z,85.40
2018-03-12T19:03:46.903Z,85.57
2018-03-12T19:06:14.774Z,85.90
2018-03-12T19:08:43.145Z,86.18
2018-03-12T19:11:14.503Z,86.55
2018-03-12T19:13:43.111Z,86.60
2018-03-12T19:16:10.841Z,86.19
2018-03-12T19:18:38.809Z,85.79
2018-03-12T19:21:06.635Z,85.89
2018-03-12T19:23:34.320Z,86.45
2018-03-12T19:26:02.337Z,87.17
2018-03-12T19:28:30.240Z,86.90
2018-03-12T19:31:00.168Z,87.33
2018-03-12T19:33:29.002Z,87.19
2018-03-12T19:35:56.842Z,87.03
2018-03-12T19:38:24.577Z,86.32
2018-03-12T19:40:52.725Z,86.01
2018-03-12T19:43:21.081Z,86.26
2018-03-12T19:45:51.473Z,85.99
2018-03-12T19:48:19.483Z,87.48
2018-03-12T19:50:47.167Z,86.90
2018-03-12T19:53:15.013Z,87.98
2018-03-12T19:55:42.709Z,86.82
2018-03-12T19:58:10.415Z,86.47
2018-03-12T20:00:38.185Z,87.33
2018-03-12T20:03:07.179Z,87.45
2018-03-12T20:05:35.532Z,87.83
2018-03-12T20:08:03.644Z,87.26
2018-03-12T20:10:35.610Z,87.49
2018-03-12T20:13:08.885Z,87.78
2018-03-12T20:15:39.945Z,87.78
2018-03-12T20:18:07.985Z,88.56
2018-03-12T20:20:36.019Z,88.11
2018-03-12T20:23:05.291Z,87.67
2018-03-12T20:25:33.229Z,87.37
2018-03-12T20:28:01.069Z,87.42
2018-03-12T20:30:50.688Z,87.62
2018-03-12T20:33:19.293Z,87.73
2018-03-12T20:35:47.147Z,87.29
2018-03-12T20:38:15.039Z,87.06
2018-03-12T20:40:43.755Z,87.38
2018-03-12T20:43:11.782Z,87.93
2018-03-12T20:45:39.849Z,88.87
2018-03-12T20:48:07.827Z,87.21
2018-03-12T20:50:35.703Z,87.62
2018-03-12T20:53:04.271Z,88.29
2018-03-12T20:55:32.152Z,88.65
2018-03-12T20:58:00.998Z,88.43
2018-03-12T21:00:29.040Z,87.98
2018-03-12T21:02:57.133Z,88.17
2018-03-12T21:05:25.150Z,88.58
2018-03-12T21:07:53.047Z,88.45
2018-03-12T21:10:21.027Z,88.68
2018-03-12T21:12:49.562Z,88.27
2018-03-12T21:15:17.569Z,88.98
2018-03-12T21:17:45.298Z,88.84
2018-03-12T21:20:14.328Z,87.78
2018-03-12T21:22:42.151Z,87.04
2018-03-12T21:25:10.030Z,87.31
2018-03-12T21:27:37.789Z,87.65
2018-03-12T21:30:05.859Z,88.84
2018-03-12T21:32:34.878Z,88.54
2018-03-12T21:35:02.863Z,88.60
2018-03-12T21:37:30.897Z,88.26
2018-03-12T21:39:58.832Z,88.71
2018-03-12T21:42:27.038Z,88.63
2018-03-12T21:44:54.682Z,89.23
2018-03-12T21:47:23.063Z,89.26
2018-03-12T21:49:51.097Z,89.12
2018-03-12T21:52:19.637Z,88.92
2018-03-12T21:54:47.607Z,89.05
2018-03-12T21:57:15.381Z,89.30
2018-03-12T21:59:44.176Z,89.75
2018-03-12T22:02:11.923Z,89.50
2018-03-12T22:04:39.706Z,88.81
2018-03-12T22:07:07.609Z,88.97
2018-03-12T22:09:35.836Z,89.59
2018-03-12T22:12:04.868Z,89.15
2018-03-12T22:14:32.539Z,89.38
2018-03-12T22:17:00.360Z,89.74
2018-03-12T22:19:28.031Z,89.51
2018-03-12T22:21:55.879Z,89.87
2018-03-12T22:24:23.793Z,89.49
2018-03-12T22:26:51.671Z,90.19
2018-03-12T22:29:19.472Z,89.46
2018-03-12T22:31:47.545Z,89.68
2018-03-12T22:34:15.443Z,90.21
2018-03-12T22:36:43.078Z,90.01
2018-03-12T22:39:10.729Z,90.55
2018-03-12T22:41:38.321Z,89.70
2018-03-12T22:44:06.887Z,89.12
2018-03-12T22:46:34.623Z,89.36
2018-03-12T22:49:03.461Z,90.09
2018-03-12T22:51:31.309Z,88.73
2018-03-12T22:53:59.027Z,89.45
2018-03-12T22:56:26.935Z,89.62
2018-03-12T22:58:55.779Z,90.28
2018-03-12T23:01:23.598Z,90.38
2018-03-12T23:03:51.208Z,89.79
2018-03-12T23:06:18.861Z,90.23
2018-03-12T23:08:46.575Z,89.96
2018-03-12T23:11:15.307Z,90.01
2018-03-12T23:13:43.146Z,89.90
2018-03-12T23:16:11.417Z,90.00
2018-03-12T23:18:39.079Z,89.83
2018-03-12T23:21:06.827Z,89.91
2018-03-12T23:23:34.610Z,89.67
2018-03-12T23:26:03.299Z,90.14
2018-03-12T23:28:31.077Z,90.30
2018-03-12T23:30:58.814Z,90.16
2018-03-12T23:33:26.413Z,89.91
2018-03-12T23:35:54.358Z,89.40
2018-03-12T23:38:22.020Z,90.53
2018-03-12T23:40:49.801Z,91.03
2018-03-12T23:43:17.714Z,90.57
2018-03-12T23:45:45.520Z,90.52
2018-03-12T23:48:13.944Z,90.52
2018-03-12T23:50:41.748Z,90.40
2018-03-12T23:53:09.349Z,90.58
2018-03-12T23:55:37.521Z,90.42
2018-03-12T23:58:05.315Z,90.41
